sensor_id;sensor_type;location;lat;lon;timestamp;P1;durP1;ratioP1;P2;durP2;ratioP2
74791;SDS011;63319;46.046;17.802;2022-12-13T00:00:36;24.85;;;15.35;;
74791;SDS011;63319;46.046;17.802;2022-12-13T00:03:39;26.90;;;15.70;;
74791;SDS011;63319;46.046;17.802;2022-12-13T00:06:43;26.30;;;15.77;;
74791;SDS011;63319;46.046;17.802;2022-12-13T00:09:46;27.17;;;17.10;;
74791;SDS011;63319;46.046;17.802;2022-12-13T00:12:55;24.27;;;15.40;;
74791;SDS011;63319;46.046;17.802;2022-12-13T00:16:02;25.23;;;16.35;;
74791;SDS011;63319;46.046;17.802;2022-12-13T00:19:07;24.47;;;15.73;;
74791;SDS011;63319;46.046;17.802;2022-12-13T00:22:10;24.90;;;15.40;;
74791;SDS011;63319;46.046;17.802;2022-12-13T00:25:13;26.67;;;15.77;;
74791;SDS011;63319;46.046;17.802;2022-12-13T00:28:16;25.30;;;16.00;;
74791;SDS011;63319;46.046;17.802;2022-12-13T00:31:20;25.83;;;15.63;;
74791;SDS011;63319;46.046;17.802;2022-12-13T00:34:48;27.33;;;15.87;;
74791;SDS011;63319;46.046;17.802;2022-12-13T00:37:50;26.43;;;15.67;;
74791;SDS011;63319;46.046;17.802;2022-12-13T00:40:54;26.02;;;15.77;;
74791;SDS011;63319;46.046;17.802;2022-12-13T00:43:57;24.00;;;15.55;;
74791;SDS011;63319;46.046;17.802;2022-12-13T00:47:01;25.33;;;15.70;;
74791;SDS011;63319;46.046;17.802;2022-12-13T00:50:04;23.03;;;14.67;;
74791;SDS011;63319;46.046;17.802;2022-12-13T00:53:08;23.80;;;14.87;;
74791;SDS011;63319;46.046;17.802;2022-12-13T00:56:15;22.98;;;14.48;;
74791;SDS011;63319;46.046;17.802;2022-12-13T00:59:21;22.52;;;13.88;;
74791;SDS011;63319;46.046;17.802;2022-12-13T01:02:24;22.92;;;14.32;;
74791;SDS011;63319;46.046;17.802;2022-12-13T01:05:27;25.23;;;15.33;;
74791;SDS011;63319;46.046;17.802;2022-12-13T01:08:49;24.20;;;14.27;;
74791;SDS011;63319;46.046;17.802;2022-12-13T01:11:59;23.25;;;13.65;;
74791;SDS011;63319;46.046;17.802;2022-12-13T01:15:09;23.90;;;14.40;;
74791;SDS011;63319;46.046;17.802;2022-12-13T01:18:12;25.42;;;14.88;;
74791;SDS011;63319;46.046;17.802;2022-12-13T01:21:20;20.83;;;13.40;;
74791;SDS011;63319;46.046;17.802;2022-12-13T01:24:23;23.37;;;14.10;;
74791;SDS011;63319;46.046;17.802;2022-12-13T01:27:27;21.90;;;13.55;;
74791;SDS011;63319;46.046;17.802;2022-12-13T01:30:32;21.15;;;13.07;;
74791;SDS011;63319;46.046;17.802;2022-12-13T01:33:35;21.98;;;13.63;;
74791;SDS011;63319;46.046;17.802;2022-12-13T01:36:39;23.10;;;14.13;;
74791;SDS011;63319;46.046;17.802;2022-12-13T01:39:44;24.20;;;13.53;;
74791;SDS011;63319;46.046;17.802;2022-12-13T01:42:46;20.10;;;12.90;;
74791;SDS011;63319;46.046;17.802;2022-12-13T01:45:52;21.88;;;13.43;;
74791;SDS011;63319;46.046;17.802;2022-12-13T01:52:04;23.80;;;13.67;;
74791;SDS011;63319;46.046;17.802;2022-12-13T01:55:11;20.63;;;12.83;;
74791;SDS011;63319;46.046;17.802;2022-12-13T01:58:15;21.70;;;12.95;;
74791;SDS011;63319;46.046;17.802;2022-12-13T02:01:18;21.33;;;13.55;;
74791;SDS011;63319;46.046;17.802;2022-12-13T02:04:29;21.30;;;12.85;;
74791;SDS011;63319;46.046;17.802;2022-12-13T02:07:48;20.93;;;12.53;;
74791;SDS011;63319;46.046;17.802;2022-12-13T02:10:55;20.73;;;12.97;;
74791;SDS011;63319;46.046;17.802;2022-12-13T02:14:07;20.58;;;13.13;;
74791;SDS011;63319;46.046;17.802;2022-12-13T02:20:28;19.58;;;12.68;;
74791;SDS011;63319;46.046;17.802;2022-12-13T02:30:45;20.08;;;11.35;;
74791;SDS011;63319;46.046;17.802;2022-12-13T02:34:08;19.05;;;12.43;;
74791;SDS011;63319;46.046;17.802;2022-12-13T02:37:35;20.23;;;12.27;;
74791;SDS011;63319;46.046;17.802;2022-12-13T02:40:59;19.23;;;11.63;;
74791;SDS011;63319;46.046;17.802;2022-12-13T02:44:16;19.63;;;11.57;;
74791;SDS011;63319;46.046;17.802;2022-12-13T02:47:26;19.05;;;11.35;;
74791;SDS011;63319;46.046;17.802;2022-12-13T02:50:31;19.15;;;11.52;;
74791;SDS011;63319;46.046;17.802;2022-12-13T02:53:35;18.73;;;11.43;;
74791;SDS011;63319;46.046;17.802;2022-12-13T02:56:40;17.13;;;11.20;;
74791;SDS011;63319;46.046;17.802;2022-12-13T02:59:43;18.40;;;10.80;;
74791;SDS011;63319;46.046;17.802;2022-12-13T03:13:07;18.03;;;11.60;;
74791;SDS011;63319;46.046;17.802;2022-12-13T03:16:41;17.33;;;11.03;;
74791;SDS011;63319;46.046;17.802;2022-12-13T03:19:46;18.73;;;10.50;;
74791;SDS011;63319;46.046;17.802;2022-12-13T03:22:52;16.98;;;11.00;;
74791;SDS011;63319;46.046;17.802;2022-12-13T03:29:27;17.20;;;10.33;;
74791;SDS011;63319;46.046;17.802;2022-12-13T03:32:30;16.47;;;10.57;;
74791;SDS011;63319;46.046;17.802;2022-12-13T03:35:33;17.98;;;10.32;;
74791;SDS011;63319;46.046;17.802;2022-12-13T03:38:47;18.05;;;10.75;;
74791;SDS011;63319;46.046;17.802;2022-12-13T03:41:51;17.92;;;11.65;;
74791;SDS011;63319;46.046;17.802;2022-12-13T03:44:54;18.63;;;10.83;;
74791;SDS011;63319;46.046;17.802;2022-12-13T03:47:57;16.77;;;10.10;;
74791;SDS011;63319;46.046;17.802;2022-12-13T03:51:00;16.13;;;9.90;;
74791;SDS011;63319;46.046;17.802;2022-12-13T03:54:04;16.75;;;10.85;;
74791;SDS011;63319;46.046;17.802;2022-12-13T03:57:06;16.38;;;9.82;;
74791;SDS011;63319;46.046;17.802;2022-12-13T04:00:09;17.63;;;9.90;;
74791;SDS011;63319;46.046;17.802;2022-12-13T04:03:16;17.30;;;10.77;;
74791;SDS011;63319;46.046;17.802;2022-12-13T04:06:30;17.85;;;10.88;;
74791;SDS011;63319;46.046;17.802;2022-12-13T04:09:34;14.80;;;9.52;;
74791;SDS011;63319;46.046;17.802;2022-12-13T04:12:37;14.98;;;9.85;;
74791;SDS011;63319;46.046;17.802;2022-12-13T04:16:01;15.00;;;9.37;;
74791;SDS011;63319;46.046;17.802;2022-12-13T04:19:04;15.70;;;9.30;;
74791;SDS011;63319;46.046;17.802;2022-12-13T04:22:07;14.32;;;8.80;;
74791;SDS011;63319;46.046;17.802;2022-12-13T04:25:10;17.35;;;10.15;;
74791;SDS011;63319;46.046;17.802;2022-12-13T04:28:14;16.90;;;9.65;;
74791;SDS011;63319;46.046;17.802;2022-12-13T04:31:24;16.53;;;10.30;;
74791;SDS011;63319;46.046;17.802;2022-12-13T04:34:26;16.30;;;9.27;;
74791;SDS011;63319;46.046;17.802;2022-12-13T04:37:37;15.90;;;10.18;;
74791;SDS011;63319;46.046;17.802;2022-12-13T04:40:45;16.55;;;10.25;;
74791;SDS011;63319;46.046;17.802;2022-12-13T04:43:49;15.90;;;9.68;;
74791;SDS011;63319;46.046;17.802;2022-12-13T04:46:54;16.50;;;9.77;;
74791;SDS011;63319;46.046;17.802;2022-12-13T04:50:02;16.43;;;9.83;;
74791;SDS011;63319;46.046;17.802;2022-12-13T04:53:11;16.92;;;10.55;;
74791;SDS011;63319;46.046;17.802;2022-12-13T04:56:16;14.73;;;10.25;;
74791;SDS011;63319;46.046;17.802;2022-12-13T04:59:18;17.30;;;9.88;;
74791;SDS011;63319;46.046;17.802;2022-12-13T05:02:21;16.43;;;10.00;;
74791;SDS011;63319;46.046;17.802;2022-12-13T05:05:25;17.23;;;10.60;;
74791;SDS011;63319;46.046;17.802;2022-12-13T05:08:28;17.05;;;10.07;;
74791;SDS011;63319;46.046;17.802;2022-12-13T05:11:31;16.25;;;10.18;;
74791;SDS011;63319;46.046;17.802;2022-12-13T05:14:37;15.13;;;9.27;;
74791;SDS011;63319;46.046;17.802;2022-12-13T05:17:40;16.43;;;9.40;;
74791;SDS011;63319;46.046;17.802;2022-12-13T05:20:45;16.13;;;10.07;;
74791;SDS011;63319;46.046;17.802;2022-12-13T05:23:48;16.35;;;10.10;;
74791;SDS011;63319;46.046;17.802;2022-12-13T05:26:50;14.52;;;9.75;;
74791;SDS011;63319;46.046;17.802;2022-12-13T05:29:54;15.07;;;9.45;;
74791;SDS011;63319;46.046;17.802;2022-12-13T05:33:05;16.00;;;9.73;;
74791;SDS011;63319;46.046;17.802;2022-12-13T05:36:09;15.40;;;9.07;;
74791;SDS011;63319;46.046;17.802;2022-12-13T05:39:11;16.45;;;9.57;;
74791;SDS011;63319;46.046;17.802;2022-12-13T05:42:30;15.75;;;9.52;;
74791;SDS011;63319;46.046;17.802;2022-12-13T05:45:33;15.55;;;10.05;;
74791;SDS011;63319;46.046;17.802;2022-12-13T05:48:36;15.17;;;9.83;;
74791;SDS011;63319;46.046;17.802;2022-12-13T05:51:39;16.37;;;9.70;;
74791;SDS011;63319;46.046;17.802;2022-12-13T05:54:42;15.02;;;9.38;;
74791;SDS011;63319;46.046;17.802;2022-12-13T05:57:45;15.88;;;9.88;;
74791;SDS011;63319;46.046;17.802;2022-12-13T06:00:52;14.20;;;9.15;;
74791;SDS011;63319;46.046;17.802;2022-12-13T06:03:55;14.27;;;9.20;;
74791;SDS011;63319;46.046;17.802;2022-12-13T06:06:58;16.57;;;9.80;;
74791;SDS011;63319;46.046;17.802;2022-12-13T06:10:01;15.95;;;10.05;;
74791;SDS011;63319;46.046;17.802;2022-12-13T06:13:15;15.57;;;9.98;;
74791;SDS011;63319;46.046;17.802;2022-12-13T06:16:33;15.65;;;9.82;;
74791;SDS011;63319;46.046;17.802;2022-12-13T06:19:36;14.60;;;9.83;;
74791;SDS011;63319;46.046;17.802;2022-12-13T06:22:39;17.27;;;10.93;;
74791;SDS011;63319;46.046;17.802;2022-12-13T06:25:42;16.85;;;11.10;;
74791;SDS011;63319;46.046;17.802;2022-12-13T06:28:51;17.48;;;10.50;;
74791;SDS011;63319;46.046;17.802;2022-12-13T06:31:55;15.98;;;10.18;;
74791;SDS011;63319;46.046;17.802;2022-12-13T06:35:04;16.47;;;9.77;;
74791;SDS011;63319;46.046;17.802;2022-12-13T06:38:27;16.87;;;11.40;;
74791;SDS011;63319;46.046;17.802;2022-12-13T06:41:33;16.35;;;10.57;;
74791;SDS011;63319;46.046;17.802;2022-12-13T06:44:37;16.60;;;10.55;;
74791;SDS011;63319;46.046;17.802;2022-12-13T06:47:42;17.92;;;11.18;;
74791;SDS011;63319;46.046;17.802;2022-12-13T06:50:45;16.33;;;10.90;;
74791;SDS011;63319;46.046;17.802;2022-12-13T06:53:48;17.90;;;10.73;;
74791;SDS011;63319;46.046;17.802;2022-12-13T06:56:51;17.92;;;10.77;;
74791;SDS011;63319;46.046;17.802;2022-12-13T06:59:54;15.63;;;10.75;;
74791;SDS011;63319;46.046;17.802;2022-12-13T07:02:57;17.67;;;11.73;;
74791;SDS011;63319;46.046;17.802;2022-12-13T07:06:02;19.47;;;12.50;;
74791;SDS011;63319;46.046;17.802;2022-12-13T07:09:07;20.33;;;12.13;;
74791;SDS011;63319;46.046;17.802;2022-12-13T07:12:09;18.83;;;12.57;;
74791;SDS011;63319;46.046;17.802;2022-12-13T07:15:12;21.70;;;13.90;;
74791;SDS011;63319;46.046;17.802;2022-12-13T07:18:18;25.08;;;16.10;;
74791;SDS011;63319;46.046;17.802;2022-12-13T07:21:30;23.33;;;14.77;;
74791;SDS011;63319;46.046;17.802;2022-12-13T07:24:33;18.70;;;12.10;;
74791;SDS011;63319;46.046;17.802;2022-12-13T07:27:36;21.30;;;14.05;;
74791;SDS011;63319;46.046;17.802;2022-12-13T07:30:39;21.17;;;13.80;;
74791;SDS011;63319;46.046;17.802;2022-12-13T07:33:43;18.50;;;12.73;;
74791;SDS011;63319;46.046;17.802;2022-12-13T07:36:48;22.53;;;13.40;;
74791;SDS011;63319;46.046;17.802;2022-12-13T07:39:51;21.83;;;13.97;;
74791;SDS011;63319;46.046;17.802;2022-12-13T07:43:08;19.75;;;12.68;;
74791;SDS011;63319;46.046;17.802;2022-12-13T07:46:11;21.27;;;13.75;;
74791;SDS011;63319;46.046;17.802;2022-12-13T07:49:15;19.00;;;13.05;;
74791;SDS011;63319;46.046;17.802;2022-12-13T07:52:18;22.50;;;13.60;;
74791;SDS011;63319;46.046;17.802;2022-12-13T07:55:21;19.33;;;12.90;;
74791;SDS011;63319;46.046;17.802;2022-12-13T07:58:36;19.25;;;12.45;;
74791;SDS011;63319;46.046;17.802;2022-12-13T08:01:39;19.90;;;13.18;;
74791;SDS011;63319;46.046;17.802;2022-12-13T08:04:43;19.80;;;12.13;;
74791;SDS011;63319;46.046;17.802;2022-12-13T08:07:56;18.57;;;12.70;;
74791;SDS011;63319;46.046;17.802;2022-12-13T08:11:00;21.33;;;13.53;;
74791;SDS011;63319;46.046;17.802;2022-12-13T08:14:07;19.20;;;12.80;;
74791;SDS011;63319;46.046;17.802;2022-12-13T08:17:10;20.85;;;13.50;;
74791;SDS011;63319;46.046;17.802;2022-12-13T08:20:13;19.60;;;13.43;;
74791;SDS011;63319;46.046;17.802;2022-12-13T08:23:23;23.80;;;13.63;;
74791;SDS011;63319;46.046;17.802;2022-12-13T08:26:26;20.97;;;13.93;;
74791;SDS011;63319;46.046;17.802;2022-12-13T08:29:30;21.35;;;13.75;;
74791;SDS011;63319;46.046;17.802;2022-12-13T08:32:37;21.58;;;13.88;;
74791;SDS011;63319;46.046;17.802;2022-12-13T08:35:39;19.35;;;13.52;;
74791;SDS011;63319;46.046;17.802;2022-12-13T08:38:43;17.50;;;13.20;;
74791;SDS011;63319;46.046;17.802;2022-12-13T08:41:46;22.70;;;14.33;;
74791;SDS011;63319;46.046;17.802;2022-12-13T08:44:50;21.92;;;13.48;;
74791;SDS011;63319;46.046;17.802;2022-12-13T08:47:56;24.85;;;14.73;;
74791;SDS011;63319;46.046;17.802;2022-12-13T08:51:00;23.35;;;13.55;;
74791;SDS011;63319;46.046;17.802;2022-12-13T08:54:04;21.70;;;14.10;;
74791;SDS011;63319;46.046;17.802;2022-12-13T08:57:12;20.80;;;13.80;;
74791;SDS011;63319;46.046;17.802;2022-12-13T09:00:16;19.48;;;13.38;;
74791;SDS011;63319;46.046;17.802;2022-12-13T09:03:21;24.58;;;14.32;;
74791;SDS011;63319;46.046;17.802;2022-12-13T09:06:24;29.33;;;14.55;;
74791;SDS011;63319;46.046;17.802;2022-12-13T09:09:27;26.33;;;14.23;;
74791;SDS011;63319;46.046;17.802;2022-12-13T09:12:30;20.00;;;14.07;;
74791;SDS011;63319;46.046;17.802;2022-12-13T09:15:43;18.15;;;13.27;;
74791;SDS011;63319;46.046;17.802;2022-12-13T09:19:14;20.45;;;12.52;;
74791;SDS011;63319;46.046;17.802;2022-12-13T09:22:27;19.77;;;11.90;;
74791;SDS011;63319;46.046;17.802;2022-12-13T09:25:34;20.60;;;12.90;;
74791;SDS011;63319;46.046;17.802;2022-12-13T09:28:39;20.77;;;12.10;;
74791;SDS011;63319;46.046;17.802;2022-12-13T09:31:42;20.52;;;12.57;;
74791;SDS011;63319;46.046;17.802;2022-12-13T09:34:54;17.23;;;11.38;;
74791;SDS011;63319;46.046;17.802;2022-12-13T09:37:57;22.85;;;13.02;;
74791;SDS011;63319;46.046;17.802;2022-12-13T09:41:11;16.10;;;10.60;;
74791;SDS011;63319;46.046;17.802;2022-12-13T09:44:32;18.10;;;11.80;;
74791;SDS011;63319;46.046;17.802;2022-12-13T09:47:48;19.13;;;11.60;;
74791;SDS011;63319;46.046;17.802;2022-12-13T09:51:02;19.90;;;10.77;;
74791;SDS011;63319;46.046;17.802;2022-12-13T09:54:21;17.42;;;10.15;;
74791;SDS011;63319;46.046;17.802;2022-12-13T09:57:26;15.73;;;10.53;;
74791;SDS011;63319;46.046;17.802;2022-12-13T10:00:35;15.50;;;10.13;;
74791;SDS011;63319;46.046;17.802;2022-12-13T10:03:40;15.45;;;10.40;;
74791;SDS011;63319;46.046;17.802;2022-12-13T10:06:51;16.33;;;9.52;;
74791;SDS011;63319;46.046;17.802;2022-12-13T10:09:58;16.73;;;10.40;;
74791;SDS011;63319;46.046;17.802;2022-12-13T10:16:17;14.63;;;8.80;;
74791;SDS011;63319;46.046;17.802;2022-12-13T10:19:28;12.65;;;9.07;;
74791;SDS011;63319;46.046;17.802;2022-12-13T10:22:34;13.73;;;8.95;;
74791;SDS011;63319;46.046;17.802;2022-12-13T10:25:55;15.35;;;9.50;;
74791;SDS011;63319;46.046;17.802;2022-12-13T10:29:05;13.00;;;8.77;;
74791;SDS011;63319;46.046;17.802;2022-12-13T10:32:12;15.43;;;7.97;;
74791;SDS011;63319;46.046;17.802;2022-12-13T10:38:27;13.27;;;8.40;;
74791;SDS011;63319;46.046;17.802;2022-12-13T10:41:34;15.52;;;8.73;;
74791;SDS011;63319;46.046;17.802;2022-12-13T10:44:39;16.53;;;8.83;;
74791;SDS011;63319;46.046;17.802;2022-12-13T10:47:43;13.77;;;8.73;;
74791;SDS011;63319;46.046;17.802;2022-12-13T10:54:16;13.82;;;8.07;;
74791;SDS011;63319;46.046;17.802;2022-12-13T10:57:53;12.88;;;8.60;;
74791;SDS011;63319;46.046;17.802;2022-12-13T11:01:06;12.23;;;7.73;;
74791;SDS011;63319;46.046;17.802;2022-12-13T11:04:29;13.60;;;7.43;;
74791;SDS011;63319;46.046;17.802;2022-12-13T11:07:33;13.68;;;8.13;;
74791;SDS011;63319;46.046;17.802;2022-12-13T11:10:36;14.27;;;7.95;;
74791;SDS011;63319;46.046;17.802;2022-12-13T11:17:09;11.50;;;7.13;;
74791;SDS011;63319;46.046;17.802;2022-12-13T11:20:23;11.30;;;6.50;;
74791;SDS011;63319;46.046;17.802;2022-12-13T11:23:43;11.68;;;7.03;;
74791;SDS011;63319;46.046;17.802;2022-12-13T11:26:48;13.18;;;6.85;;
74791;SDS011;63319;46.046;17.802;2022-12-13T11:34:15;11.70;;;7.80;;
74791;SDS011;63319;46.046;17.802;2022-12-13T11:41:14;10.82;;;6.90;;
74791;SDS011;63319;46.046;17.802;2022-12-13T11:48:06;13.40;;;6.97;;
74791;SDS011;63319;46.046;17.802;2022-12-13T11:51:23;13.13;;;7.27;;
74791;SDS011;63319;46.046;17.802;2022-12-13T11:54:34;13.43;;;7.20;;
74791;SDS011;63319;46.046;17.802;2022-12-13T11:57:54;9.52;;;6.70;;
74791;SDS011;63319;46.046;17.802;2022-12-13T12:01:10;10.25;;;7.00;;
74791;SDS011;63319;46.046;17.802;2022-12-13T12:04:28;10.13;;;6.20;;
74791;SDS011;63319;46.046;17.802;2022-12-13T12:07:38;11.53;;;7.13;;
74791;SDS011;63319;46.046;17.802;2022-12-13T12:14:29;10.65;;;6.55;;
74791;SDS011;63319;46.046;17.802;2022-12-13T12:17:37;12.23;;;7.13;;
74791;SDS011;63319;46.046;17.802;2022-12-13T12:30:46;10.68;;;6.32;;
74791;SDS011;63319;46.046;17.802;2022-12-13T12:51:28;13.63;;;5.90;;
74791;SDS011;63319;46.046;17.802;2022-12-13T12:58:13;10.90;;;6.13;;
74791;SDS011;63319;46.046;17.802;2022-12-13T13:05:12;8.43;;;5.60;;
74791;SDS011;63319;46.046;17.802;2022-12-13T13:08:19;9.52;;;5.80;;
74791;SDS011;63319;46.046;17.802;2022-12-13T13:11:28;10.15;;;6.05;;
74791;SDS011;63319;46.046;17.802;2022-12-13T13:14:58;10.43;;;5.53;;
74791;SDS011;63319;46.046;17.802;2022-12-13T13:18:01;11.03;;;5.47;;
74791;SDS011;63319;46.046;17.802;2022-12-13T13:24:35;11.38;;;6.28;;
74791;SDS011;63319;46.046;17.802;2022-12-13T13:27:41;10.45;;;6.38;;
74791;SDS011;63319;46.046;17.802;2022-12-13T13:31:05;13.73;;;6.77;;
74791;SDS011;63319;46.046;17.802;2022-12-13T13:34:20;8.97;;;5.70;;
74791;SDS011;63319;46.046;17.802;2022-12-13T13:37:46;11.68;;;6.53;;
74791;SDS011;63319;46.046;17.802;2022-12-13T13:40:52;11.65;;;6.82;;
74791;SDS011;63319;46.046;17.802;2022-12-13T13:43:55;10.68;;;7.03;;
74791;SDS011;63319;46.046;17.802;2022-12-13T13:50:28;11.70;;;7.43;;
74791;SDS011;63319;46.046;17.802;2022-12-13T14:15:11;18.60;;;8.15;;
74791;SDS011;63319;46.046;17.802;2022-12-13T14:22:17;22.80;;;8.67;;
74791;SDS011;63319;46.046;17.802;2022-12-13T14:28:58;17.60;;;7.78;;
74791;SDS011;63319;46.046;17.802;2022-12-13T14:32:16;20.45;;;8.65;;
74791;SDS011;63319;46.046;17.802;2022-12-13T14:35:29;17.48;;;8.63;;
74791;SDS011;63319;46.046;17.802;2022-12-13T14:38:33;16.73;;;9.13;;
74791;SDS011;63319;46.046;17.802;2022-12-13T14:41:46;13.27;;;7.43;;
74791;SDS011;63319;46.046;17.802;2022-12-13T14:45:11;20.00;;;9.27;;
74791;SDS011;63319;46.046;17.802;2022-12-13T14:48:16;16.23;;;8.10;;
74791;SDS011;63319;46.046;17.802;2022-12-13T14:51:31;17.75;;;8.85;;
74791;SDS011;63319;46.046;17.802;2022-12-13T14:54:40;24.60;;;9.23;;
74791;SDS011;63319;46.046;17.802;2022-12-13T14:58:14;14.17;;;7.90;;
74791;SDS011;63319;46.046;17.802;2022-12-13T15:01:27;17.52;;;8.30;;
74791;SDS011;63319;46.046;17.802;2022-12-13T15:04:35;16.20;;;8.57;;
74791;SDS011;63319;46.046;17.802;2022-12-13T15:07:39;19.13;;;8.32;;
74791;SDS011;63319;46.046;17.802;2022-12-13T15:10:44;15.47;;;8.30;;
74791;SDS011;63319;46.046;17.802;2022-12-13T15:13:50;20.37;;;8.80;;
74791;SDS011;63319;46.046;17.802;2022-12-13T15:16:54;15.50;;;8.00;;
74791;SDS011;63319;46.046;17.802;2022-12-13T15:20:21;17.80;;;8.15;;
74791;SDS011;63319;46.046;17.802;2022-12-13T15:23:30;16.27;;;7.70;;
74791;SDS011;63319;46.046;17.802;2022-12-13T15:26:40;16.17;;;8.33;;
74791;SDS011;63319;46.046;17.802;2022-12-13T15:29:44;17.57;;;8.87;;
74791;SDS011;63319;46.046;17.802;2022-12-13T15:33:04;14.05;;;7.93;;
74791;SDS011;63319;46.046;17.802;2022-12-13T15:36:21;15.73;;;8.52;;
74791;SDS011;63319;46.046;17.802;2022-12-13T15:39:28;16.33;;;7.95;;
74791;SDS011;63319;46.046;17.802;2022-12-13T15:42:33;13.80;;;7.57;;
74791;SDS011;63319;46.046;17.802;2022-12-13T15:45:38;13.13;;;7.30;;
74791;SDS011;63319;46.046;17.802;2022-12-13T15:48:42;14.35;;;7.63;;
74791;SDS011;63319;46.046;17.802;2022-12-13T15:51:54;15.85;;;7.68;;
74791;SDS011;63319;46.046;17.802;2022-12-13T15:58:16;12.87;;;6.77;;
74791;SDS011;63319;46.046;17.802;2022-12-13T16:01:32;13.10;;;7.43;;
74791;SDS011;63319;46.046;17.802;2022-12-13T16:04:36;12.35;;;7.20;;
74791;SDS011;63319;46.046;17.802;2022-12-13T16:07:39;15.45;;;8.32;;
74791;SDS011;63319;46.046;17.802;2022-12-13T16:10:46;13.68;;;8.35;;
74791;SDS011;63319;46.046;17.802;2022-12-13T16:13:51;14.17;;;7.83;;
74791;SDS011;63319;46.046;17.802;2022-12-13T16:17:01;18.60;;;7.73;;
74791;SDS011;63319;46.046;17.802;2022-12-13T16:20:15;12.05;;;7.43;;
74791;SDS011;63319;46.046;17.802;2022-12-13T16:23:22;15.07;;;7.28;;
74791;SDS011;63319;46.046;17.802;2022-12-13T16:26:29;15.48;;;8.27;;
74791;SDS011;63319;46.046;17.802;2022-12-13T16:29:32;13.80;;;8.10;;
74791;SDS011;63319;46.046;17.802;2022-12-13T16:32:36;13.33;;;7.83;;
74791;SDS011;63319;46.046;17.802;2022-12-13T16:35:59;12.38;;;7.53;;
74791;SDS011;63319;46.046;17.802;2022-12-13T16:39:03;14.85;;;8.20;;
74791;SDS011;63319;46.046;17.802;2022-12-13T16:42:08;13.93;;;7.90;;
74791;SDS011;63319;46.046;17.802;2022-12-13T16:45:11;13.63;;;7.87;;
74791;SDS011;63319;46.046;17.802;2022-12-13T16:48:38;16.87;;;8.53;;
74791;SDS011;63319;46.046;17.802;2022-12-13T16:51:42;13.38;;;7.13;;
74791;SDS011;63319;46.046;17.802;2022-12-13T16:54:50;13.63;;;7.57;;
74791;SDS011;63319;46.046;17.802;2022-12-13T16:57:58;14.38;;;8.63;;
74791;SDS011;63319;46.046;17.802;2022-12-13T17:01:08;14.27;;;8.30;;
74791;SDS011;63319;46.046;17.802;2022-12-13T17:04:14;12.30;;;7.87;;
74791;SDS011;63319;46.046;17.802;2022-12-13T17:07:22;14.60;;;8.00;;
74791;SDS011;63319;46.046;17.802;2022-12-13T17:10:27;15.30;;;7.97;;
74791;SDS011;63319;46.046;17.802;2022-12-13T17:13:30;13.63;;;7.85;;
74791;SDS011;63319;46.046;17.802;2022-12-13T17:16:35;14.10;;;7.43;;
74791;SDS011;63319;46.046;17.802;2022-12-13T17:19:40;13.67;;;7.60;;
74791;SDS011;63319;46.046;17.802;2022-12-13T17:22:44;14.20;;;8.07;;
74791;SDS011;63319;46.046;17.802;2022-12-13T17:25:47;13.48;;;7.97;;
74791;SDS011;63319;46.046;17.802;2022-12-13T17:28:59;14.95;;;8.90;;
74791;SDS011;63319;46.046;17.802;2022-12-13T17:32:03;12.73;;;7.57;;
74791;SDS011;63319;46.046;17.802;2022-12-13T17:35:09;12.73;;;7.93;;
74791;SDS011;63319;46.046;17.802;2022-12-13T17:38:21;13.57;;;8.40;;
74791;SDS011;63319;46.046;17.802;2022-12-13T17:41:32;12.90;;;7.85;;
74791;SDS011;63319;46.046;17.802;2022-12-13T17:44:36;14.90;;;8.38;;
74791;SDS011;63319;46.046;17.802;2022-12-13T17:47:40;14.93;;;8.53;;
74791;SDS011;63319;46.046;17.802;2022-12-13T17:50:44;14.40;;;8.87;;
74791;SDS011;63319;46.046;17.802;2022-12-13T17:53:50;16.15;;;8.75;;
74791;SDS011;63319;46.046;17.802;2022-12-13T17:56:54;13.93;;;8.25;;
74791;SDS011;63319;46.046;17.802;2022-12-13T18:00:00;14.30;;;8.55;;
74791;SDS011;63319;46.046;17.802;2022-12-13T18:03:33;13.80;;;8.50;;
74791;SDS011;63319;46.046;17.802;2022-12-13T18:06:49;14.00;;;7.93;;
74791;SDS011;63319;46.046;17.802;2022-12-13T18:09:53;14.60;;;8.57;;
74791;SDS011;63319;46.046;17.802;2022-12-13T18:12:57;16.00;;;8.27;;
74791;SDS011;63319;46.046;17.802;2022-12-13T18:16:06;13.18;;;8.48;;
74791;SDS011;63319;46.046;17.802;2022-12-13T18:19:12;15.03;;;8.63;;
74791;SDS011;63319;46.046;17.802;2022-12-13T18:22:19;12.90;;;8.60;;
74791;SDS011;63319;46.046;17.802;2022-12-13T18:25:25;12.77;;;7.90;;
74791;SDS011;63319;46.046;17.802;2022-12-13T18:28:28;13.70;;;8.32;;
74791;SDS011;63319;46.046;17.802;2022-12-13T18:31:34;14.05;;;8.68;;
74791;SDS011;63319;46.046;17.802;2022-12-13T18:34:40;13.60;;;8.20;;
74791;SDS011;63319;46.046;17.802;2022-12-13T18:37:44;14.97;;;8.27;;
74791;SDS011;63319;46.046;17.802;2022-12-13T18:40:49;13.23;;;8.60;;
74791;SDS011;63319;46.046;17.802;2022-12-13T18:43:57;13.48;;;7.95;;
74791;SDS011;63319;46.046;17.802;2022-12-13T18:47:03;11.45;;;8.35;;
74791;SDS011;63319;46.046;17.802;2022-12-13T18:50:07;12.87;;;7.97;;
74791;SDS011;63319;46.046;17.802;2022-12-13T18:53:12;13.80;;;8.87;;
74791;SDS011;63319;46.046;17.802;2022-12-13T18:56:16;15.50;;;8.30;;
74791;SDS011;63319;46.046;17.802;2022-12-13T18:59:21;14.23;;;8.60;;
74791;SDS011;63319;46.046;17.802;2022-12-13T19:02:25;16.92;;;9.20;;
74791;SDS011;63319;46.046;17.802;2022-12-13T19:05:35;13.33;;;8.70;;
74791;SDS011;63319;46.046;17.802;2022-12-13T19:08:45;14.00;;;8.70;;
74791;SDS011;63319;46.046;17.802;2022-12-13T19:11:54;12.10;;;7.85;;
74791;SDS011;63319;46.046;17.802;2022-12-13T19:15:02;13.75;;;8.02;;
74791;SDS011;63319;46.046;17.802;2022-12-13T19:18:10;13.90;;;8.38;;
74791;SDS011;63319;46.046;17.802;2022-12-13T19:21:18;13.57;;;8.23;;
74791;SDS011;63319;46.046;17.802;2022-12-13T19:24:23;14.10;;;8.37;;
74791;SDS011;63319;46.046;17.802;2022-12-13T19:27:29;13.98;;;8.23;;
74791;SDS011;63319;46.046;17.802;2022-12-13T19:30:33;15.20;;;8.52;;
74791;SDS011;63319;46.046;17.802;2022-12-13T19:33:39;15.15;;;8.75;;
74791;SDS011;63319;46.046;17.802;2022-12-13T19:36:44;15.47;;;9.47;;
74791;SDS011;63319;46.046;17.802;2022-12-13T19:39:51;15.60;;;8.47;;
74791;SDS011;63319;46.046;17.802;2022-12-13T19:42:55;16.10;;;8.88;;
74791;SDS011;63319;46.046;17.802;2022-12-13T19:46:00;14.57;;;9.00;;
74791;SDS011;63319;46.046;17.802;2022-12-13T19:49:06;14.27;;;8.45;;
74791;SDS011;63319;46.046;17.802;2022-12-13T19:52:11;15.33;;;8.63;;
74791;SDS011;63319;46.046;17.802;2022-12-13T19:55:15;16.13;;;8.93;;
74791;SDS011;63319;46.046;17.802;2022-12-13T19:58:23;12.13;;;8.32;;
74791;SDS011;63319;46.046;17.802;2022-12-13T20:01:28;14.50;;;8.43;;
74791;SDS011;63319;46.046;17.802;2022-12-13T20:04:52;15.27;;;8.90;;
74791;SDS011;63319;46.046;17.802;2022-12-13T20:08:26;14.10;;;8.13;;
74791;SDS011;63319;46.046;17.802;2022-12-13T20:11:50;15.73;;;8.80;;
74791;SDS011;63319;46.046;17.802;2022-12-13T20:15:13;16.92;;;9.20;;
74791;SDS011;63319;46.046;17.802;2022-12-13T20:18:37;14.23;;;8.68;;
74791;SDS011;63319;46.046;17.802;2022-12-13T20:22:01;16.40;;;8.65;;